Decoded Metar for LFQQ (LILLE in FRANCE) (IATA:LIL) | Meteo·Mobile Aviation Weather
aviador You're here:

LFQQ Decoded Metar

LILLE in FRANCE
Report Time2019-11-14 12:00:00
UTC Time2019-11-14 12:23:39
Flight Rules mvfr MVFR
Wind170° at 09 kt
W.Decomp.*RWY 20: 7.8 kt HW 4.5 kt LCW
RWY 08: 9.0 kt RCW
Visibility9999 m
Phenomena:N/A
Clouds:Overcast 029 Hf
Expected CloudBase > 2,000 ft AGL from Temp-Dew spread
Ceiling2,900 ft
Temp07°C (ISA -8)
Dew Point02°C (71% RH)
AAT2.1°C
QNH0998 hPa
Density Alt-141 ft
Elevation171 ft
Report Wrong Elevation
Raw Report
LFQQ 141200Z AUTO 17009KT 150V210 9999 OVC029 07/02 Q0998
NOSIG=

Extra information for LFQQ:More info

Metar Taf Metar & Taf Last 4 Metars F.Rules Stats Wind Profile Meteogram Temp Stats Airport Information Weather charts Add Link Nearby VenuesMetar ALERT Operation Metar Decoded Social comments